sensor_id;sensor_type;location;lat;lon;timestamp;temperature;humidity
5218;DHT22;26539;51.064;6.346;2024-02-23T00:01:45;6.50;79.80
5218;DHT22;26539;51.064;6.346;2024-02-23T00:04:11;6.50;99.90
5218;DHT22;26539;51.064;6.346;2024-02-23T00:06:39;6.40;99.90
5218;DHT22;26539;51.064;6.346;2024-02-23T00:09:05;6.40;99.90
5218;DHT22;26539;51.064;6.346;2024-02-23T00:11:40;6.30;99.90
5218;DHT22;26539;51.064;6.346;2024-02-23T00:14:10;6.30;99.90
5218;DHT22;26539;51.064;6.346;2024-02-23T00:16:54;6.30;99.90
5218;DHT22;26539;51.064;6.346;2024-02-23T00:19:19;6.30;99.90
5218;DHT22;26539;51.064;6.346;2024-02-23T00:22:05;6.30;99.90
5218;DHT22;26539;51.064;6.346;2024-02-23T00:24:33;6.30;99.90
5218;DHT22;26539;51.064;6.346;2024-02-23T00:27:02;6.30;45.70
5218;DHT22;26539;51.064;6.346;2024-02-23T00:29:28;6.30;1.00
5218;DHT22;26539;51.064;6.346;2024-02-23T00:31:53;6.30;1.00
5218;DHT22;26539;51.064;6.346;2024-02-23T00:34:19;6.30;1.00
5218;DHT22;26539;51.064;6.346;2024-02-23T00:36:55;6.30;1.00
5218;DHT22;26539;51.064;6.346;2024-02-23T00:39:23;6.30;1.00
5218;DHT22;26539;51.064;6.346;2024-02-23T00:41:48;6.30;99.90
5218;DHT22;26539;51.064;6.346;2024-02-23T00:44:14;6.20;99.90
5218;DHT22;26539;51.064;6.346;2024-02-23T00:46:40;6.10;99.90
5218;DHT22;26539;51.064;6.346;2024-02-23T00:49:05;6.20;99.90
5218;DHT22;26539;51.064;6.346;2024-02-23T00:51:33;6.10;99.90
5218;DHT22;26539;51.064;6.346;2024-02-23T00:53:59;6.10;84.20
5218;DHT22;26539;51.064;6.346;2024-02-23T00:56:24;6.10;29.40
5218;DHT22;26539;51.064;6.346;2024-02-23T00:58:50;6.20;1.00
5218;DHT22;26539;51.064;6.346;2024-02-23T01:01:16;6.10;1.00
5218;DHT22;26539;51.064;6.346;2024-02-23T01:03:42;6.00;1.00
5218;DHT22;26539;51.064;6.346;2024-02-23T01:06:07;6.10;1.00
5218;DHT22;26539;51.064;6.346;2024-02-23T01:08:36;6.10;1.00
5218;DHT22;26539;51.064;6.346;2024-02-23T01:11:01;6.00;1.00
5218;DHT22;26539;51.064;6.346;2024-02-23T01:13:27;6.10;49.10
5218;DHT22;26539;51.064;6.346;2024-02-23T01:15:53;6.00;99.90
5218;DHT22;26539;51.064;6.346;2024-02-23T01:18:19;6.10;99.90
5218;DHT22;26539;51.064;6.346;2024-02-23T01:20:45;6.10;99.90
5218;DHT22;26539;51.064;6.346;2024-02-23T01:23:10;6.10;99.90
5218;DHT22;26539;51.064;6.346;2024-02-23T01:25:35;6.00;26.50
5218;DHT22;26539;51.064;6.346;2024-02-23T01:28:01;6.00;43.80
5218;DHT22;26539;51.064;6.346;2024-02-23T01:30:27;6.00;1.00
5218;DHT22;26539;51.064;6.346;2024-02-23T01:32:52;6.00;1.00
5218;DHT22;26539;51.064;6.346;2024-02-23T01:35:17;6.00;1.00
5218;DHT22;26539;51.064;6.346;2024-02-23T01:37:43;6.00;1.00
5218;DHT22;26539;51.064;6.346;2024-02-23T01:40:09;6.00;1.00
5218;DHT22;26539;51.064;6.346;2024-02-23T01:42:34;6.00;1.00
5218;DHT22;26539;51.064;6.346;2024-02-23T01:45:00;6.00;1.00
5218;DHT22;26539;51.064;6.346;2024-02-23T01:47:27;5.90;1.00
5218;DHT22;26539;51.064;6.346;2024-02-23T01:49:53;5.90;1.00
5218;DHT22;26539;51.064;6.346;2024-02-23T01:52:19;5.90;1.00
5218;DHT22;26539;51.064;6.346;2024-02-23T01:54:45;5.90;11.10
5218;DHT22;26539;51.064;6.346;2024-02-23T01:57:10;5.80;14.50
5218;DHT22;26539;51.064;6.346;2024-02-23T01:59:36;5.90;1.00
5218;DHT22;26539;51.064;6.346;2024-02-23T02:02:03;5.80;1.00
5218;DHT22;26539;51.064;6.346;2024-02-23T02:04:29;5.80;1.00
5218;DHT22;26539;51.064;6.346;2024-02-23T02:06:54;5.80;1.00
5218;DHT22;26539;51.064;6.346;2024-02-23T02:09:20;5.80;1.00
5218;DHT22;26539;51.064;6.346;2024-02-23T02:11:49;5.70;1.00
5218;DHT22;26539;51.064;6.346;2024-02-23T02:14:15;5.80;1.00
5218;DHT22;26539;51.064;6.346;2024-02-23T02:16:40;5.70;1.00
5218;DHT22;26539;51.064;6.346;2024-02-23T02:19:06;5.80;1.00
5218;DHT22;26539;51.064;6.346;2024-02-23T02:21:32;5.70;1.00
5218;DHT22;26539;51.064;6.346;2024-02-23T02:23:58;5.70;1.00
5218;DHT22;26539;51.064;6.346;2024-02-23T02:26:23;5.70;1.00
5218;DHT22;26539;51.064;6.346;2024-02-23T02:28:49;5.60;1.00
5218;DHT22;26539;51.064;6.346;2024-02-23T02:31:14;5.60;1.00
5218;DHT22;26539;51.064;6.346;2024-02-23T02:33:40;5.60;1.00
5218;DHT22;26539;51.064;6.346;2024-02-23T02:36:06;5.60;1.00
5218;DHT22;26539;51.064;6.346;2024-02-23T02:38:31;5.60;1.00
5218;DHT22;26539;51.064;6.346;2024-02-23T02:40:58;5.60;1.00
5218;DHT22;26539;51.064;6.346;2024-02-23T02:43:25;5.60;1.00
5218;DHT22;26539;51.064;6.346;2024-02-23T02:45:51;5.60;1.00
5218;DHT22;26539;51.064;6.346;2024-02-23T02:48:16;5.60;1.00
5218;DHT22;26539;51.064;6.346;2024-02-23T02:50:42;5.60;1.00
5218;DHT22;26539;51.064;6.346;2024-02-23T02:53:07;5.60;1.00
5218;DHT22;26539;51.064;6.346;2024-02-23T02:55:33;5.60;1.00
5218;DHT22;26539;51.064;6.346;2024-02-23T02:57:58;5.70;1.00
5218;DHT22;26539;51.064;6.346;2024-02-23T03:00:24;5.70;1.00
5218;DHT22;26539;51.064;6.346;2024-02-23T03:02:49;5.70;1.00
5218;DHT22;26539;51.064;6.346;2024-02-23T03:05:15;5.70;99.90
5218;DHT22;26539;51.064;6.346;2024-02-23T03:07:40;5.80;99.90
5218;DHT22;26539;51.064;6.346;2024-02-23T03:10:06;5.80;99.90
5218;DHT22;26539;51.064;6.346;2024-02-23T03:12:32;5.80;1.00
5218;DHT22;26539;51.064;6.346;2024-02-23T03:14:57;5.80;99.90
5218;DHT22;26539;51.064;6.346;2024-02-23T03:17:23;5.80;99.90
5218;DHT22;26539;51.064;6.346;2024-02-23T03:19:48;5.80;99.90
5218;DHT22;26539;51.064;6.346;2024-02-23T03:22:15;5.80;99.90
5218;DHT22;26539;51.064;6.346;2024-02-23T03:24:41;5.80;82.10
5218;DHT22;26539;51.064;6.346;2024-02-23T03:27:06;5.80;1.00
5218;DHT22;26539;51.064;6.346;2024-02-23T03:29:32;5.80;1.00
5218;DHT22;26539;51.064;6.346;2024-02-23T03:31:57;5.70;1.00
5218;DHT22;26539;51.064;6.346;2024-02-23T03:34:23;5.70;1.00
5218;DHT22;26539;51.064;6.346;2024-02-23T03:36:49;5.60;99.90
5218;DHT22;26539;51.064;6.346;2024-02-23T03:39:14;5.60;99.90
5218;DHT22;26539;51.064;6.346;2024-02-23T03:41:40;5.60;1.00
5218;DHT22;26539;51.064;6.346;2024-02-23T03:44:05;5.60;1.00
5218;DHT22;26539;51.064;6.346;2024-02-23T03:46:31;5.60;1.00
5218;DHT22;26539;51.064;6.346;2024-02-23T03:48:56;5.60;1.00
5218;DHT22;26539;51.064;6.346;2024-02-23T03:51:22;5.60;1.00
5218;DHT22;26539;51.064;6.346;2024-02-23T03:53:48;5.60;1.00
5218;DHT22;26539;51.064;6.346;2024-02-23T03:56:13;5.60;99.90
5218;DHT22;26539;51.064;6.346;2024-02-23T03:58:39;5.60;99.90
5218;DHT22;26539;51.064;6.346;2024-02-23T04:01:04;5.60;99.90
5218;DHT22;26539;51.064;6.346;2024-02-23T04:03:30;5.60;1.00
5218;DHT22;26539;51.064;6.346;2024-02-23T04:05:55;5.60;99.90
5218;DHT22;26539;51.064;6.346;2024-02-23T04:08:21;5.60;99.90
5218;DHT22;26539;51.064;6.346;2024-02-23T04:10:46;5.60;99.90
5218;DHT22;26539;51.064;6.346;2024-02-23T04:13:12;5.60;99.90
5218;DHT22;26539;51.064;6.346;2024-02-23T04:15:39;5.60;1.00
5218;DHT22;26539;51.064;6.346;2024-02-23T04:18:05;5.60;28.80
5218;DHT22;26539;51.064;6.346;2024-02-23T04:20:30;5.70;1.00
5218;DHT22;26539;51.064;6.346;2024-02-23T04:22:56;5.70;19.00
5218;DHT22;26539;51.064;6.346;2024-02-23T04:25:21;5.70;11.60
5218;DHT22;26539;51.064;6.346;2024-02-23T04:27:46;5.80;12.00
5218;DHT22;26539;51.064;6.346;2024-02-23T04:30:12;5.80;1.00
5218;DHT22;26539;51.064;6.346;2024-02-23T04:32:38;5.80;1.00
5218;DHT22;26539;51.064;6.346;2024-02-23T04:35:03;5.90;99.90
5218;DHT22;26539;51.064;6.346;2024-02-23T04:37:29;5.90;99.90
5218;DHT22;26539;51.064;6.346;2024-02-23T04:39:54;5.90;1.00
5218;DHT22;26539;51.064;6.346;2024-02-23T04:42:20;5.90;1.00
5218;DHT22;26539;51.064;6.346;2024-02-23T04:44:45;5.90;99.90
5218;DHT22;26539;51.064;6.346;2024-02-23T04:47:11;6.00;79.50
5218;DHT22;26539;51.064;6.346;2024-02-23T04:49:36;6.00;99.90
5218;DHT22;26539;51.064;6.346;2024-02-23T04:52:02;6.00;1.00
5218;DHT22;26539;51.064;6.346;2024-02-23T04:54:28;6.00;1.00
5218;DHT22;26539;51.064;6.346;2024-02-23T04:56:53;5.90;1.00
5218;DHT22;26539;51.064;6.346;2024-02-23T04:59:18;5.90;99.90
5218;DHT22;26539;51.064;6.346;2024-02-23T05:01:44;5.90;99.90
5218;DHT22;26539;51.064;6.346;2024-02-23T05:04:09;5.90;1.00
5218;DHT22;26539;51.064;6.346;2024-02-23T05:06:35;5.90;99.90
5218;DHT22;26539;51.064;6.346;2024-02-23T05:09:01;5.90;99.90
5218;DHT22;26539;51.064;6.346;2024-02-23T05:11:26;5.90;99.90
5218;DHT22;26539;51.064;6.346;2024-02-23T05:13:52;5.90;99.90
5218;DHT22;26539;51.064;6.346;2024-02-23T05:16:17;5.90;99.90
5218;DHT22;26539;51.064;6.346;2024-02-23T05:18:43;5.90;99.90
5218;DHT22;26539;51.064;6.346;2024-02-23T05:21:09;5.90;99.90
5218;DHT22;26539;51.064;6.346;2024-02-23T05:23:35;5.90;1.00
5218;DHT22;26539;51.064;6.346;2024-02-23T05:26:00;5.90;1.00
5218;DHT22;26539;51.064;6.346;2024-02-23T05:28:26;6.00;1.00
5218;DHT22;26539;51.064;6.346;2024-02-23T05:30:51;6.00;1.00
5218;DHT22;26539;51.064;6.346;2024-02-23T05:33:17;6.00;99.90
5218;DHT22;26539;51.064;6.346;2024-02-23T05:35:46;6.00;99.90
5218;DHT22;26539;51.064;6.346;2024-02-23T05:38:14;6.10;99.90
5218;DHT22;26539;51.064;6.346;2024-02-23T05:40:39;6.10;99.90
5218;DHT22;26539;51.064;6.346;2024-02-23T05:43:05;6.10;18.30
5218;DHT22;26539;51.064;6.346;2024-02-23T05:45:30;6.10;72.80
5218;DHT22;26539;51.064;6.346;2024-02-23T05:47:56;6.10;99.90
5218;DHT22;26539;51.064;6.346;2024-02-23T05:50:21;6.10;99.90
5218;DHT22;26539;51.064;6.346;2024-02-23T05:52:47;6.10;99.90
5218;DHT22;26539;51.064;6.346;2024-02-23T05:55:12;6.10;99.90
5218;DHT22;26539;51.064;6.346;2024-02-23T05:57:38;6.20;1.00
5218;DHT22;26539;51.064;6.346;2024-02-23T06:00:03;6.20;1.00
5218;DHT22;26539;51.064;6.346;2024-02-23T06:02:29;6.20;1.00
5218;DHT22;26539;51.064;6.346;2024-02-23T06:04:55;6.10;1.00
5218;DHT22;26539;51.064;6.346;2024-02-23T06:07:20;6.10;1.00
5218;DHT22;26539;51.064;6.346;2024-02-23T06:09:52;6.10;1.00
5218;DHT22;26539;51.064;6.346;2024-02-23T06:12:17;6.10;1.00
5218;DHT22;26539;51.064;6.346;2024-02-23T06:14:43;6.10;98.50
5218;DHT22;26539;51.064;6.346;2024-02-23T06:17:08;6.10;63.20
5218;DHT22;26539;51.064;6.346;2024-02-23T06:19:33;6.10;55.20
5218;DHT22;26539;51.064;6.346;2024-02-23T06:21:59;6.10;99.90
5218;DHT22;26539;51.064;6.346;2024-02-23T06:24:25;6.10;99.90
5218;DHT22;26539;51.064;6.346;2024-02-23T06:26:50;6.10;99.90
5218;DHT22;26539;51.064;6.346;2024-02-23T06:29:17;6.10;99.90
5218;DHT22;26539;51.064;6.346;2024-02-23T06:31:42;6.10;99.90
5218;DHT22;26539;51.064;6.346;2024-02-23T06:34:14;6.10;99.90
5218;DHT22;26539;51.064;6.346;2024-02-23T06:36:39;6.10;99.90
5218;DHT22;26539;51.064;6.346;2024-02-23T06:39:05;6.10;99.90
5218;DHT22;26539;51.064;6.346;2024-02-23T06:41:30;6.10;99.90
5218;DHT22;26539;51.064;6.346;2024-02-23T06:43:56;6.10;99.90
5218;DHT22;26539;51.064;6.346;2024-02-23T06:46:22;6.10;99.90
5218;DHT22;26539;51.064;6.346;2024-02-23T06:48:47;6.10;1.00
5218;DHT22;26539;51.064;6.346;2024-02-23T06:51:13;6.10;1.00
5218;DHT22;26539;51.064;6.346;2024-02-23T06:53:40;6.20;1.00
5218;DHT22;26539;51.064;6.346;2024-02-23T06:56:06;6.20;1.00
5218;DHT22;26539;51.064;6.346;2024-02-23T06:58:31;6.30;99.90
5218;DHT22;26539;51.064;6.346;2024-02-23T07:00:57;6.30;1.00
5218;DHT22;26539;51.064;6.346;2024-02-23T07:03:22;6.50;99.90
5218;DHT22;26539;51.064;6.346;2024-02-23T07:05:48;6.70;1.00
5218;DHT22;26539;51.064;6.346;2024-02-23T07:08:15;6.90;1.00
5218;DHT22;26539;51.064;6.346;2024-02-23T07:10:40;7.00;1.00
5218;DHT22;26539;51.064;6.346;2024-02-23T07:13:06;7.00;1.00
5218;DHT22;26539;51.064;6.346;2024-02-23T07:15:32;7.10;1.00
5218;DHT22;26539;51.064;6.346;2024-02-23T07:17:58;7.10;1.00
5218;DHT22;26539;51.064;6.346;2024-02-23T07:20:23;7.20;1.00
5218;DHT22;26539;51.064;6.346;2024-02-23T07:22:49;7.30;1.00
5218;DHT22;26539;51.064;6.346;2024-02-23T07:25:17;7.80;1.00
5218;DHT22;26539;51.064;6.346;2024-02-23T07:27:45;9.00;99.90
5218;DHT22;26539;51.064;6.346;2024-02-23T07:30:11;9.30;48.00
5218;DHT22;26539;51.064;6.346;2024-02-23T07:32:36;9.40;8.50
5218;DHT22;26539;51.064;6.346;2024-02-23T07:35:02;9.70;1.00
5218;DHT22;26539;51.064;6.346;2024-02-23T07:37:29;10.40;1.00
5218;DHT22;26539;51.064;6.346;2024-02-23T07:39:54;10.20;1.00
5218;DHT22;26539;51.064;6.346;2024-02-23T07:42:22;11.10;1.00
5218;DHT22;26539;51.064;6.346;2024-02-23T07:44:47;13.70;1.00
5218;DHT22;26539;51.064;6.346;2024-02-23T07:47:13;15.60;1.00
5218;DHT22;26539;51.064;6.346;2024-02-23T07:49:38;15.10;1.00
5218;DHT22;26539;51.064;6.346;2024-02-23T07:52:06;14.80;1.00
5218;DHT22;26539;51.064;6.346;2024-02-23T07:54:32;14.20;1.00
5218;DHT22;26539;51.064;6.346;2024-02-23T07:56:57;15.80;1.00
5218;DHT22;26539;51.064;6.346;2024-02-23T07:59:23;16.00;1.00
5218;DHT22;26539;51.064;6.346;2024-02-23T08:01:48;15.00;1.00
5218;DHT22;26539;51.064;6.346;2024-02-23T08:04:14;14.20;1.00
5218;DHT22;26539;51.064;6.346;2024-02-23T08:06:39;14.80;1.00
5218;DHT22;26539;51.064;6.346;2024-02-23T08:09:05;14.40;1.00
5218;DHT22;26539;51.064;6.346;2024-02-23T08:11:30;13.90;1.00
5218;DHT22;26539;51.064;6.346;2024-02-23T08:13:55;12.90;1.00
5218;DHT22;26539;51.064;6.346;2024-02-23T08:16:21;12.00;1.00
5218;DHT22;26539;51.064;6.346;2024-02-23T08:18:46;11.30;1.00
5218;DHT22;26539;51.064;6.346;2024-02-23T08:21:12;10.90;1.00
5218;DHT22;26539;51.064;6.346;2024-02-23T08:23:38;10.50;1.00
5218;DHT22;26539;51.064;6.346;2024-02-23T08:26:03;12.40;1.00
5218;DHT22;26539;51.064;6.346;2024-02-23T08:28:28;15.80;1.00
5218;DHT22;26539;51.064;6.346;2024-02-23T08:30:54;18.60;1.00
5218;DHT22;26539;51.064;6.346;2024-02-23T08:33:20;20.70;99.90
5218;DHT22;26539;51.064;6.346;2024-02-23T08:35:45;22.40;1.00
5218;DHT22;26539;51.064;6.346;2024-02-23T08:38:13;24.00;1.00
5218;DHT22;26539;51.064;6.346;2024-02-23T08:40:39;24.70;99.90
5218;DHT22;26539;51.064;6.346;2024-02-23T08:43:05;25.80;1.00
5218;DHT22;26539;51.064;6.346;2024-02-23T08:45:30;26.70;1.00
5218;DHT22;26539;51.064;6.346;2024-02-23T08:47:56;26.90;1.00
5218;DHT22;26539;51.064;6.346;2024-02-23T08:50:21;27.30;1.00
5218;DHT22;26539;51.064;6.346;2024-02-23T08:52:47;26.70;1.00
5218;DHT22;26539;51.064;6.346;2024-02-23T08:55:12;26.60;1.00
5218;DHT22;26539;51.064;6.346;2024-02-23T08:57:38;25.40;1.00
5218;DHT22;26539;51.064;6.346;2024-02-23T09:00:04;23.40;1.00
5218;DHT22;26539;51.064;6.346;2024-02-23T09:02:30;21.70;1.00
5218;DHT22;26539;51.064;6.346;2024-02-23T09:04:56;20.00;1.00
5218;DHT22;26539;51.064;6.346;2024-02-23T09:07:21;18.90;1.00
5218;DHT22;26539;51.064;6.346;2024-02-23T09:09:47;18.40;1.00
5218;DHT22;26539;51.064;6.346;2024-02-23T09:12:14;17.60;1.00
5218;DHT22;26539;51.064;6.346;2024-02-23T09:14:42;16.90;1.00
5218;DHT22;26539;51.064;6.346;2024-02-23T09:17:08;15.80;1.00
5218;DHT22;26539;51.064;6.346;2024-02-23T09:19:35;15.20;1.00
5218;DHT22;26539;51.064;6.346;2024-02-23T09:22:02;14.60;1.00
5218;DHT22;26539;51.064;6.346;2024-02-23T09:24:27;14.10;1.00
5218;DHT22;26539;51.064;6.346;2024-02-23T09:26:53;13.60;1.00
5218;DHT22;26539;51.064;6.346;2024-02-23T09:29:18;13.30;1.00
5218;DHT22;26539;51.064;6.346;2024-02-23T09:31:44;13.20;1.00
5218;DHT22;26539;51.064;6.346;2024-02-23T09:34:10;13.20;1.00
5218;DHT22;26539;51.064;6.346;2024-02-23T09:36:35;12.90;1.00
5218;DHT22;26539;51.064;6.346;2024-02-23T09:39:00;12.60;1.00
5218;DHT22;26539;51.064;6.346;2024-02-23T09:41:27;12.50;1.00
5218;DHT22;26539;51.064;6.346;2024-02-23T09:43:52;13.40;1.00
5218;DHT22;26539;51.064;6.346;2024-02-23T09:46:23;13.80;1.00
5218;DHT22;26539;51.064;6.346;2024-02-23T09:48:48;14.60;1.00
5218;DHT22;26539;51.064;6.346;2024-02-23T09:51:15;14.80;1.00
5218;DHT22;26539;51.064;6.346;2024-02-23T09:53:41;14.50;1.00
5218;DHT22;26539;51.064;6.346;2024-02-23T09:56:08;14.20;1.00
5218;DHT22;26539;51.064;6.346;2024-02-23T09:58:34;13.80;1.00
5218;DHT22;26539;51.064;6.346;2024-02-23T10:00:59;13.30;1.00
5218;DHT22;26539;51.064;6.346;2024-02-23T10:03:27;12.80;99.90
5218;DHT22;26539;51.064;6.346;2024-02-23T10:05:54;12.40;99.90
5218;DHT22;26539;51.064;6.346;2024-02-23T10:08:19;12.20;99.90
5218;DHT22;26539;51.064;6.346;2024-02-23T10:10:47;11.80;1.00
5218;DHT22;26539;51.064;6.346;2024-02-23T10:13:22;11.50;99.90
5218;DHT22;26539;51.064;6.346;2024-02-23T10:15:49;11.40;1.00
5218;DHT22;26539;51.064;6.346;2024-02-23T10:18:15;11.30;99.90
5218;DHT22;26539;51.064;6.346;2024-02-23T10:20:40;11.30;99.90
5218;DHT22;26539;51.064;6.346;2024-02-23T10:23:07;11.30;99.90
5218;DHT22;26539;51.064;6.346;2024-02-23T10:25:35;11.50;99.90
5218;DHT22;26539;51.064;6.346;2024-02-23T10:28:05;11.50;99.90
5218;DHT22;26539;51.064;6.346;2024-02-23T10:30:30;11.60;99.90
5218;DHT22;26539;51.064;6.346;2024-02-23T10:32:56;11.60;99.90
5218;DHT22;26539;51.064;6.346;2024-02-23T10:35:22;11.40;99.90
5218;DHT22;26539;51.064;6.346;2024-02-23T10:37:48;11.40;99.90
5218;DHT22;26539;51.064;6.346;2024-02-23T10:40:16;11.30;99.90
5218;DHT22;26539;51.064;6.346;2024-02-23T10:42:43;11.40;99.90
5218;DHT22;26539;51.064;6.346;2024-02-23T10:45:09;11.10;99.90
5218;DHT22;26539;51.064;6.346;2024-02-23T10:47:35;11.10;99.90
5218;DHT22;26539;51.064;6.346;2024-02-23T10:50:01;11.20;99.90
5218;DHT22;26539;51.064;6.346;2024-02-23T10:52:28;11.20;99.90
5218;DHT22;26539;51.064;6.346;2024-02-23T10:54:54;11.50;99.90
5218;DHT22;26539;51.064;6.346;2024-02-23T10:57:21;11.90;99.90
5218;DHT22;26539;51.064;6.346;2024-02-23T10:59:46;13.20;1.00
5218;DHT22;26539;51.064;6.346;2024-02-23T11:02:12;13.90;1.00
5218;DHT22;26539;51.064;6.346;2024-02-23T11:04:41;14.10;99.90
5218;DHT22;26539;51.064;6.346;2024-02-23T11:07:12;14.00;1.00
5218;DHT22;26539;51.064;6.346;2024-02-23T11:09:38;13.60;1.00
5218;DHT22;26539;51.064;6.346;2024-02-23T11:12:04;13.30;99.90
5218;DHT22;26539;51.064;6.346;2024-02-23T11:14:34;13.80;99.90
5218;DHT22;26539;51.064;6.346;2024-02-23T11:17:00;14.00;1.00
5218;DHT22;26539;51.064;6.346;2024-02-23T11:19:32;13.60;1.00
5218;DHT22;26539;51.064;6.346;2024-02-23T11:21:59;13.40;99.90
5218;DHT22;26539;51.064;6.346;2024-02-23T11:24:25;13.30;1.00
5218;DHT22;26539;51.064;6.346;2024-02-23T11:26:55;13.20;1.00
5218;DHT22;26539;51.064;6.346;2024-02-23T11:29:21;13.00;1.00
5218;DHT22;26539;51.064;6.346;2024-02-23T11:31:47;12.70;1.00
5218;DHT22;26539;51.064;6.346;2024-02-23T11:34:12;12.50;1.00
5218;DHT22;26539;51.064;6.346;2024-02-23T11:36:38;12.50;1.00
5218;DHT22;26539;51.064;6.346;2024-02-23T11:39:03;12.50;1.00
5218;DHT22;26539;51.064;6.346;2024-02-23T11:41:29;12.50;99.90
5218;DHT22;26539;51.064;6.346;2024-02-23T11:43:55;12.50;1.00
5218;DHT22;26539;51.064;6.346;2024-02-23T11:46:21;12.50;1.00
5218;DHT22;26539;51.064;6.346;2024-02-23T11:48:47;12.70;1.00
5218;DHT22;26539;51.064;6.346;2024-02-23T11:51:18;12.80;1.00
5218;DHT22;26539;51.064;6.346;2024-02-23T11:53:44;12.60;1.00
5218;DHT22;26539;51.064;6.346;2024-02-23T11:56:11;12.40;1.00
5218;DHT22;26539;51.064;6.346;2024-02-23T11:58:36;12.10;1.00
5218;DHT22;26539;51.064;6.346;2024-02-23T12:01:02;12.00;1.00
5218;DHT22;26539;51.064;6.346;2024-02-23T12:03:28;11.90;1.00
5218;DHT22;26539;51.064;6.346;2024-02-23T12:05:55;12.20;1.00
5218;DHT22;26539;51.064;6.346;2024-02-23T12:08:21;12.50;1.00
5218;DHT22;26539;51.064;6.346;2024-02-23T12:10:47;12.70;1.00
5218;DHT22;26539;51.064;6.346;2024-02-23T12:13:12;12.90;1.00
5218;DHT22;26539;51.064;6.346;2024-02-23T12:15:38;13.40;1.00
5218;DHT22;26539;51.064;6.346;2024-02-23T12:18:04;13.40;99.90
5218;DHT22;26539;51.064;6.346;2024-02-23T12:20:32;13.30;1.00
5218;DHT22;26539;51.064;6.346;2024-02-23T12:22:58;13.00;1.00
5218;DHT22;26539;51.064;6.346;2024-02-23T12:25:25;12.80;1.00
5218;DHT22;26539;51.064;6.346;2024-02-23T12:27:55;12.60;1.00
5218;DHT22;26539;51.064;6.346;2024-02-23T12:30:21;12.30;99.90
5218;DHT22;26539;51.064;6.346;2024-02-23T12:32:46;12.20;99.90
5218;DHT22;26539;51.064;6.346;2024-02-23T12:35:12;12.10;99.90
5218;DHT22;26539;51.064;6.346;2024-02-23T12:37:37;12.10;99.90
5218;DHT22;26539;51.064;6.346;2024-02-23T12:40:04;12.00;99.90
5218;DHT22;26539;51.064;6.346;2024-02-23T12:42:31;11.90;99.90
5218;DHT22;26539;51.064;6.346;2024-02-23T12:44:56;11.90;99.90
5218;DHT22;26539;51.064;6.346;2024-02-23T12:47:22;12.00;1.00
5218;DHT22;26539;51.064;6.346;2024-02-23T12:49:47;12.70;1.00
5218;DHT22;26539;51.064;6.346;2024-02-23T12:52:13;13.20;1.00
5218;DHT22;26539;51.064;6.346;2024-02-23T12:54:38;13.30;1.00
5218;DHT22;26539;51.064;6.346;2024-02-23T12:57:04;13.20;1.00
5218;DHT22;26539;51.064;6.346;2024-02-23T12:59:30;13.20;1.00
5218;DHT22;26539;51.064;6.346;2024-02-23T13:01:55;12.90;1.00
5218;DHT22;26539;51.064;6.346;2024-02-23T13:04:21;12.80;1.00
5218;DHT22;26539;51.064;6.346;2024-02-23T13:06:46;12.50;1.00
5218;DHT22;26539;51.064;6.346;2024-02-23T13:09:12;12.40;99.90
5218;DHT22;26539;51.064;6.346;2024-02-23T13:11:39;12.50;1.00
5218;DHT22;26539;51.064;6.346;2024-02-23T13:14:05;12.70;1.00
5218;DHT22;26539;51.064;6.346;2024-02-23T13:16:31;12.80;1.00
5218;DHT22;26539;51.064;6.346;2024-02-23T13:18:56;12.80;1.00
5218;DHT22;26539;51.064;6.346;2024-02-23T13:21:22;12.90;1.00
5218;DHT22;26539;51.064;6.346;2024-02-23T13:23:48;13.00;99.90
5218;DHT22;26539;51.064;6.346;2024-02-23T13:26:14;13.10;99.90
5218;DHT22;26539;51.064;6.346;2024-02-23T13:28:41;13.50;99.90
5218;DHT22;26539;51.064;6.346;2024-02-23T13:31:06;14.20;99.90
5218;DHT22;26539;51.064;6.346;2024-02-23T13:33:32;14.30;99.90
5218;DHT22;26539;51.064;6.346;2024-02-23T13:35:58;14.30;99.90
5218;DHT22;26539;51.064;6.346;2024-02-23T13:38:23;14.20;99.90
5218;DHT22;26539;51.064;6.346;2024-02-23T13:40:49;13.90;99.90
5218;DHT22;26539;51.064;6.346;2024-02-23T13:43:17;13.70;99.90
5218;DHT22;26539;51.064;6.346;2024-02-23T13:45:49;13.60;99.90
5218;DHT22;26539;51.064;6.346;2024-02-23T13:48:16;13.40;99.90
5218;DHT22;26539;51.064;6.346;2024-02-23T13:50:41;13.20;99.90
5218;DHT22;26539;51.064;6.346;2024-02-23T13:53:07;13.00;99.90
5218;DHT22;26539;51.064;6.346;2024-02-23T13:55:33;12.90;99.90
5218;DHT22;26539;51.064;6.346;2024-02-23T13:57:58;12.90;99.90
5218;DHT22;26539;51.064;6.346;2024-02-23T14:00:24;13.00;99.90
5218;DHT22;26539;51.064;6.346;2024-02-23T14:02:49;13.00;99.90
5218;DHT22;26539;51.064;6.346;2024-02-23T14:05:15;13.00;99.90
5218;DHT22;26539;51.064;6.346;2024-02-23T14:07:40;12.90;99.90
5218;DHT22;26539;51.064;6.346;2024-02-23T14:10:06;13.00;99.90
5218;DHT22;26539;51.064;6.346;2024-02-23T14:12:32;13.00;99.90
5218;DHT22;26539;51.064;6.346;2024-02-23T14:14:57;12.90;99.90
5218;DHT22;26539;51.064;6.346;2024-02-23T14:17:23;12.80;99.90
5218;DHT22;26539;51.064;6.346;2024-02-23T14:19:49;12.70;99.90
5218;DHT22;26539;51.064;6.346;2024-02-23T14:22:16;12.50;99.90
5218;DHT22;26539;51.064;6.346;2024-02-23T14:24:41;12.40;99.90
5218;DHT22;26539;51.064;6.346;2024-02-23T14:27:07;12.10;99.90
5218;DHT22;26539;51.064;6.346;2024-02-23T14:29:32;12.00;99.90
5218;DHT22;26539;51.064;6.346;2024-02-23T14:31:59;11.90;99.90
5218;DHT22;26539;51.064;6.346;2024-02-23T14:34:24;11.80;99.90
5218;DHT22;26539;51.064;6.346;2024-02-23T14:36:50;11.80;99.90
5218;DHT22;26539;51.064;6.346;2024-02-23T14:39:15;11.60;99.90
5218;DHT22;26539;51.064;6.346;2024-02-23T14:41:41;11.50;99.90
5218;DHT22;26539;51.064;6.346;2024-02-23T14:44:07;11.40;99.90
5218;DHT22;26539;51.064;6.346;2024-02-23T14:46:33;11.40;99.90
5218;DHT22;26539;51.064;6.346;2024-02-23T14:48:58;11.30;99.90
5218;DHT22;26539;51.064;6.346;2024-02-23T14:51:24;11.30;99.90
5218;DHT22;26539;51.064;6.346;2024-02-23T14:53:49;11.20;99.90
5218;DHT22;26539;51.064;6.346;2024-02-23T14:56:14;11.10;99.90
5218;DHT22;26539;51.064;6.346;2024-02-23T14:58:40;10.90;99.90
5218;DHT22;26539;51.064;6.346;2024-02-23T15:01:06;10.80;99.90
5218;DHT22;26539;51.064;6.346;2024-02-23T15:03:31;10.80;1.00
5218;DHT22;26539;51.064;6.346;2024-02-23T15:05:58;10.90;1.00
5218;DHT22;26539;51.064;6.346;2024-02-23T15:08:23;10.90;1.00
5218;DHT22;26539;51.064;6.346;2024-02-23T15:10:49;10.90;1.00
5218;DHT22;26539;51.064;6.346;2024-02-23T15:13:16;10.80;1.00
5218;DHT22;26539;51.064;6.346;2024-02-23T15:15:42;10.80;1.00
5218;DHT22;26539;51.064;6.346;2024-02-23T15:18:08;10.70;1.00
5218;DHT22;26539;51.064;6.346;2024-02-23T15:20:33;10.60;1.00
5218;DHT22;26539;51.064;6.346;2024-02-23T15:22:59;10.50;1.00
5218;DHT22;26539;51.064;6.346;2024-02-23T15:25:24;10.50;1.00
5218;DHT22;26539;51.064;6.346;2024-02-23T15:27:50;10.40;21.90
5218;DHT22;26539;51.064;6.346;2024-02-23T15:30:17;10.40;29.60
5218;DHT22;26539;51.064;6.346;2024-02-23T15:32:43;10.30;23.60
5218;DHT22;26539;51.064;6.346;2024-02-23T15:35:09;10.30;28.60
5218;DHT22;26539;51.064;6.346;2024-02-23T15:37:34;10.30;52.60
5218;DHT22;26539;51.064;6.346;2024-02-23T15:40:00;10.40;17.40
5218;DHT22;26539;51.064;6.346;2024-02-23T15:42:26;10.70;1.00
5218;DHT22;26539;51.064;6.346;2024-02-23T15:44:51;11.00;1.00
5218;DHT22;26539;51.064;6.346;2024-02-23T15:47:17;11.20;1.00
5218;DHT22;26539;51.064;6.346;2024-02-23T15:49:43;11.20;1.00
5218;DHT22;26539;51.064;6.346;2024-02-23T15:52:08;11.20;1.00
5218;DHT22;26539;51.064;6.346;2024-02-23T15:54:33;11.10;1.00